Terminal Aerodrome Forecast
Issued by NWS

Home | Current Version | Previous Version | Text Only | Print | Product List | Glossary On
Versions: 1 2 3 4 5 6 7 8 9 10 11 12 13 14
271
FTUS43 KSGF 010520
TAFBBG
TAF
KBBG 010520Z 0106/0206 VRB03KT P6SM OVC025
     FM010900 VRB03KT 4SM BR OVC025
     FM011600 VRB04KT P6SM VCTS BKN040CB BKN090 PROB30 0116/0118 5SM
      -TSRA OVC035CB
     FM012000 VRB04KT P6SM OVC100=

USA.gov is the U.S. government's official web portal to all federal, state and local government web resources and services.